OIII/THR METAR and TAF weather

Enter ICAO airport designator
Station Type Date Time Source
OIII METAR 2020/01/19 20:00 UTC NOAA

OIII 192000Z 23004KT 5000 BR FEW025 SCT030 BKN090 01/M00 Q1020 A3013


Station Type Date Time Source
OIII Decoded METAR 2020/01/19 20:00 UTC NOAA

Tehran-Mehrabad, Iran (OIII) 35-41N 051-21E 1191M
Jan 19, 2020 - 03:00 PM EST / 2020.01.19 2000 UTC
Wind: from the SW (230 degrees) at 5 MPH (4 KT):0
Visibility: 3 mile(s):0
Sky conditions: mostly cloudy
Weather: mist
Temperature: 33 F (1 C)
Windchill: 28 F (-2 C):1
Dew Point: 32 F (0 C)
Relative Humidity: 93%
Pressure (altimeter): 30.13 in. Hg (1020 hPa)
ob: OIII 192000Z 23004KT 5000 BR FEW025 SCT030 BKN090 01/M00 Q1020 A3013
cycle: 20

Station Type Date Time Source
OIII TAF 2020/01/19 18:50 UTC NOAA

TAF OIII 191740Z 1918/2024 24008KT 1500 BR SCT020 BKN090
TEMPO 1920/2002 0800 FG
BECMG 2002/2004 2000 BR
BECMG 2006/2008 6000
TEMPO 2021/2024 3000 BR

Example: see airport list